Time;durP1;ratioP1;P1;durP2;ratioP2;P2;SDS_P1;SDS_P2;PMS_P1;PMS_P2;Temp;Humidity;BMP_temperature;BMP_pressure;BME280_temperature;BME280_humidity;BME280_pressure;Samples;Min_cycle;Max_cycle;Signal;HPM_P1;HPM_P2
2022/08/17 00:01:01;;;;;;;14.15;9.10;;;;;;;21.01;91.32;100421.69;2089124;28;20558;-67
2022/08/17 00:02:08;;;;;;;13.80;9.27;;;;;;;21.01;91.26;100416.25;2097549;28;20040;-66
2022/08/17 00:03:15;;;;;;;13.27;8.20;;;;;;;21.03;91.08;100420.22;2097019;28;20400;-67
2022/08/17 00:04:22;;;;;;;11.85;8.73;;;;;;;21.05;91.12;100420.63;2095220;28;20059;-66
2022/08/17 00:05:30;;;;;;;14.82;9.25;;;;;;;21.04;91.36;100427.25;2089241;28;20037;-67
2022/08/17 00:06:43;;;;;;;13.05;9.25;;;;;;;21.01;91.27;100419.75;2089044;28;20041;-66
2022/08/17 00:07:48;;;;;;;15.30;7.75;;;;;;;21.05;91.04;100423.38;2089222;28;20040;-66
2022/08/17 00:09:00;;;;;;;13.38;8.32;;;;;;;21.03;91.14;100419.41;2089038;28;20567;-67
2022/08/17 00:10:07;;;;;;;22.73;8.65;;;;;;;20.95;91.31;100423.09;2080907;28;20033;-66
2022/08/17 00:11:17;;;;;;;12.20;8.43;;;;;;;20.87;91.51;100424.88;2073767;28;20441;-66
2022/08/17 00:12:21;;;;;;;11.32;8.52;;;;;;;20.93;91.81;100430.84;2088941;28;20044;-67
2022/08/17 00:13:34;;;;;;;14.85;8.77;;;;;;;20.96;91.65;100420.00;2088898;28;20049;-67
2022/08/17 00:14:36;;;;;;;12.48;7.75;;;;;;;20.98;91.58;100419.69;2089099;28;20039;-66
2022/08/17 00:15:42;;;;;;;13.50;8.30;;;;;;;20.98;91.52;100427.88;2088985;28;20063;-66
2022/08/17 00:16:48;;;;;;;15.85;8.68;;;;;;;20.98;91.52;100422.41;2093514;28;20033;-66
2022/08/17 00:17:54;;;;;;;11.82;8.55;;;;;;;20.94;91.44;100416.84;2088284;28;20046;-65
2022/08/17 00:18:57;;;;;;;11.65;7.43;;;;;;;20.89;91.33;100421.78;2081019;28;20394;-66
2022/08/17 00:20:03;;;;;;;11.07;7.75;;;;;;;20.82;91.52;100420.44;2096737;28;20400;-67
2022/08/17 00:21:08;;;;;;;13.07;7.85;;;;;;;20.77;91.17;100417.19;2095924;28;20047;-66
2022/08/17 00:22:13;;;;;;;13.32;7.75;;;;;;;20.66;90.77;100424.31;2081511;28;20045;-66
2022/08/17 00:23:20;;;;;;;10.20;7.68;;;;;;;20.69;90.44;100420.88;2088704;28;20040;-67
2022/08/17 00:24:28;;;;;;;10.30;7.55;;;;;;;20.69;90.67;100418.16;2088278;28;20056;-66
2022/08/17 00:25:30;;;;;;;11.05;7.30;;;;;;;20.67;90.56;100417.69;2088882;28;20037;-66
2022/08/17 00:26:36;;;;;;;10.43;8.15;;;;;;;20.68;90.68;100420.09;2081172;28;20514;-66
2022/08/17 00:27:43;;;;;;;11.63;8.25;;;;;;;20.73;91.07;100422.56;2081461;28;20036;-67
2022/08/17 00:28:48;;;;;;;11.63;7.60;;;;;;;20.75;91.10;100423.00;2081492;28;20428;-67
2022/08/17 00:29:50;;;;;;;11.63;8.18;;;;;;;20.78;91.07;100416.06;2081170;28;20037;-66
2022/08/17 00:30:53;;;;;;;11.82;7.63;;;;;;;20.81;90.80;100418.88;2089162;28;20032;-66
2022/08/17 00:31:55;;;;;;;12.57;8.43;;;;;;;20.79;90.96;100421.16;2088286;28;20049;-66
2022/08/17 00:32:59;;;;;;;13.48;8.18;;;;;;;20.82;91.11;100419.66;2080794;28;20041;-67
2022/08/17 00:34:02;;;;;;;11.43;8.18;;;;;;;20.74;91.28;100428.81;2072692;28;20045;-66
2022/08/17 00:35:07;;;;;;;12.43;7.82;;;;;;;20.72;91.38;100410.03;2072834;28;20050;-65
2022/08/17 00:36:29;;;;;;;13.00;8.10;;;;;;;20.75;91.33;100414.81;2064870;28;20042;-66
2022/08/17 00:37:33;;;;;;;13.88;8.05;;;;;;;20.80;91.24;100420.00;2081940;28;20044;-67
2022/08/17 00:38:36;;;;;;;14.48;7.90;;;;;;;20.79;90.94;100415.69;2064038;28;20045;-66
2022/08/17 00:39:39;;;;;;;10.93;7.78;;;;;;;20.83;91.05;100422.03;2064874;28;20038;-66
2022/08/17 00:40:48;;;;;;;10.07;7.68;;;;;;;20.86;90.82;100419.75;2080486;28;20493;-66
2022/08/17 00:41:55;;;;;;;13.52;7.88;;;;;;;20.84;90.69;100425.59;2057564;28;20035;-66
2022/08/17 00:43:29;;;;;;;11.75;7.63;;;;;;;20.88;90.68;100421.00;2058028;28;20046;-66
2022/08/17 00:44:31;;;;;;;10.60;7.80;;;;;;;20.83;90.66;100424.75;2065600;28;20045;-66
2022/08/17 00:45:38;;;;;;;12.52;8.05;;;;;;;20.81;90.86;100424.34;2064666;28;20154;-66
2022/08/17 00:46:43;;;;;;;12.73;8.75;;;;;;;20.81;90.89;100424.34;2072349;28;20050;-67
2022/08/17 00:47:45;;;;;;;10.57;7.95;;;;;;;20.83;90.58;100432.97;2087692;28;20029;-66
2022/08/17 00:48:49;;;;;;;13.48;8.23;;;;;;;20.82;90.69;100425.91;2080673;28;20044;-66
2022/08/17 00:49:54;;;;;;;11.73;7.88;;;;;;;20.80;90.63;100427.41;2081289;28;20053;-66
2022/08/17 00:51:18;;;;;;;11.45;7.78;;;;;;;20.78;90.59;100426.97;2080030;28;20049;-66
2022/08/17 00:52:31;;;;;;;12.57;8.40;;;;;;;20.74;90.83;100421.44;2084216;28;20057;-66
2022/08/17 00:53:39;;;;;;;12.27;7.80;;;;;;;20.72;90.75;100422.91;2088190;28;20052;-66
2022/08/17 00:54:51;;;;;;;11.35;8.35;;;;;;;20.74;90.87;100423.34;2079857;28;20636;-67
2022/08/17 00:55:58;;;;;;;10.10;7.30;;;;;;;20.71;90.67;100424.03;2080314;28;20053;-66
2022/08/17 00:57:03;;;;;;;11.93;7.60;;;;;;;20.68;90.75;100425.56;2088448;28;20539;-66
2022/08/17 00:58:07;;;;;;;12.88;7.82;;;;;;;20.71;90.75;100419.41;2088896;28;20049;-66
2022/08/17 00:59:14;;;;;;;14.73;8.43;;;;;;;20.72;90.98;100423.72;2072988;28;20045;-65
2022/08/17 01:00:25;;;;;;;15.27;8.00;;;;;;;20.72;91.01;100420.19;2081318;28;20054;-65
2022/08/17 01:01:31;;;;;;;12.68;7.82;;;;;;;20.70;91.12;100425.19;2073582;28;20413;-65
2022/08/17 01:02:38;;;;;;;13.13;7.85;;;;;;;20.62;91.30;100432.41;2080664;28;20048;-66
2022/08/17 01:03:42;;;;;;;11.88;7.70;;;;;;;20.57;91.47;100427.97;2081066;28;20045;-65
2022/08/17 01:04:46;;;;;;;10.88;7.95;;;;;;;20.58;91.31;100426.84;2081169;28;20469;-66
2022/08/17 01:05:56;;;;;;;;;;;;;;;20.54;91.57;100425.94;2081714;28;20822;-65
2022/08/17 01:07:00;;;;;;;11.30;7.57;;;;;;;20.57;91.54;100422.53;2072423;28;20364;-65
2022/08/17 01:08:06;;;;;;;11.43;7.78;;;;;;;20.59;91.71;100427.66;2073379;28;20060;-65
2022/08/17 01:09:11;;;;;;;12.55;8.52;;;;;;;20.60;91.55;100429.22;2094065;28;20032;-66
2022/08/17 01:10:14;;;;;;;12.82;7.68;;;;;;;20.58;91.35;100429.56;2087468;28;20052;-64
2022/08/17 01:11:17;;;;;;;12.48;7.50;;;;;;;20.63;91.48;100433.22;2089045;28;20467;-66
2022/08/17 01:12:21;;;;;;;12.95;7.80;;;;;;;20.63;91.40;100433.22;2088495;28;20037;-66
2022/08/17 01:13:26;;;;;;;11.13;7.75;;;;;;;20.64;91.34;100434.78;2064174;28;20045;-66
2022/08/17 01:14:29;;;;;;;11.30;7.80;;;;;;;20.59;91.42;100428.44;2073305;28;20037;-66
2022/08/17 01:15:41;;;;;;;13.93;7.80;;;;;;;20.58;91.19;100432.28;2096766;28;20049;-67
2022/08/17 01:16:43;;;;;;;11.55;8.23;;;;;;;20.58;91.20;100426.84;2089604;28;20460;-66
2022/08/17 01:17:47;;;;;;;14.57;7.80;;;;;;;20.59;91.10;100422.97;2080124;28;20050;-66
2022/08/17 01:18:53;;;;;;;11.80;8.13;;;;;;;20.60;91.35;100430.03;2080864;28;20400;-66
2022/08/17 01:19:58;;;;;;;10.35;7.28;;;;;;;20.58;91.10;100432.28;2079194;28;20489;-66
2022/08/17 01:21:09;;;;;;;12.07;8.60;;;;;;;20.55;91.06;100427.56;2075570;28;20034;-66
2022/08/17 01:22:15;;;;;;;14.05;9.25;;;;;;;20.48;91.21;100432.78;2080470;28;20056;-66
2022/08/17 01:23:19;;;;;;;12.55;8.55;;;;;;;20.49;91.19;100428.91;2082190;28;20025;-67
2022/08/17 01:24:24;;;;;;;10.70;8.02;;;;;;;20.45;91.24;100430.75;2088785;28;20139;-67
2022/08/17 01:25:33;;;;;;;12.73;8.35;;;;;;;20.48;90.82;100429.25;2088374;28;20032;-67
2022/08/17 01:26:36;;;;;;;16.92;8.15;;;;;;;20.50;90.71;100427.78;2088506;28;20037;-66
2022/08/17 01:27:39;;;;;;;12.15;7.22;;;;;;;20.50;91.07;100426.97;2088295;28;20432;-67
2022/08/17 01:28:44;;;;;;;12.82;8.60;;;;;;;20.54;91.28;100425.94;2073985;28;20038;-67
2022/08/17 01:29:52;;;;;;;14.95;8.50;;;;;;;20.53;91.11;100429.03;2073012;28;20030;-67
2022/08/17 01:30:58;;;;;;;12.70;8.52;;;;;;;20.53;90.83;100429.03;2088516;28;20044;-66
2022/08/17 01:32:04;;;;;;;11.48;8.43;;;;;;;20.55;90.90;100433.03;2080251;28;20050;-67
2022/08/17 01:33:10;;;;;;;15.75;8.27;;;;;;;20.54;90.99;100436.88;2072625;28;20046;-66
2022/08/17 01:34:16;;;;;;;13.20;8.90;;;;;;;20.48;91.08;100430.03;2079709;28;20049;-67
2022/08/17 01:35:20;;;;;;;12.68;7.78;;;;;;;20.46;91.11;100431.53;2088335;28;20049;-67
2022/08/17 01:36:30;;;;;;;10.80;7.75;;;;;;;20.55;90.85;100430.28;2088433;28;20040;-67
2022/08/17 01:37:39;;;;;;;13.10;7.68;;;;;;;20.60;90.82;100429.22;2089021;28;20028;-67
2022/08/17 01:38:42;;;;;;;14.85;8.15;;;;;;;20.63;91.08;100433.22;2093718;28;20044;-67
2022/08/17 01:39:46;;;;;;;10.25;7.53;;;;;;;20.57;90.94;100425.25;2088272;28;20489;-67
2022/08/17 01:40:56;;;;;;;11.90;8.57;;;;;;;20.59;91.07;100425.72;2087573;28;20048;-67
2022/08/17 01:42:08;;;;;;;12.05;7.65;;;;;;;20.56;90.92;100429.13;2073163;28;20069;-66
2022/08/17 01:43:20;;;;;;;14.93;8.13;;;;;;;20.55;91.04;100426.75;2073272;28;20057;-66
2022/08/17 01:44:30;;;;;;;14.32;8.40;;;;;;;20.41;91.01;100429.84;2089669;28;20052;-65
2022/08/17 01:45:45;;;;;;;12.93;8.10;;;;;;;20.41;90.86;100427.13;2087128;28;20043;-66
2022/08/17 01:46:50;;;;;;;12.10;8.07;;;;;;;20.46;90.96;100434.25;2074005;28;20037;-66
2022/08/17 01:47:53;;;;;;;14.05;8.68;;;;;;;20.45;90.90;100428.00;2072068;28;20053;-65
2022/08/17 01:49:07;;;;;;;11.55;7.93;;;;;;;20.44;90.87;100426.44;2080766;28;20050;-66
2022/08/17 01:50:21;;;;;;;11.05;8.00;;;;;;;20.41;90.57;100427.13;2080969;28;20508;-66
2022/08/17 01:51:31;;;;;;;13.20;8.95;;;;;;;20.42;90.72;100423.25;2080928;28;20038;-66
2022/08/17 01:52:34;;;;;;;15.35;8.50;;;;;;;20.45;90.70;100425.28;2080495;28;20041;-65
2022/08/17 01:53:48;;;;;;;14.07;8.77;;;;;;;20.37;90.99;100423.50;2080820;28;20048;-65
2022/08/17 01:54:57;;;;;;;17.35;9.00;;;;;;;20.40;91.15;100424.72;2080058;28;20041;-66
2022/08/17 01:56:09;;;;;;;18.13;8.75;;;;;;;20.37;91.45;100420.78;2079756;28;20420;-66
2022/08/17 01:57:18;;;;;;;11.52;8.05;;;;;;;20.34;91.44;100424.22;2086337;28;20048;-66
2022/08/17 01:58:31;;;;;;;12.00;8.50;;;;;;;20.34;91.52;100422.25;2084942;28;20421;-66
2022/08/17 01:59:33;;;;;;;12.60;8.45;;;;;;;20.34;91.64;100419.53;2073487;28;20038;-66
2022/08/17 02:00:40;;;;;;;13.73;8.70;;;;;;;20.38;91.60;100423.16;2079869;28;20048;-66
2022/08/17 02:01:49;;;;;;;13.82;8.75;;;;;;;20.40;91.59;100419.25;2080774;28;20787;-66
2022/08/17 02:02:52;;;;;;;13.68;8.35;;;;;;;20.43;91.46;100416.66;2088177;28;20048;-64
2022/08/17 02:04:00;;;;;;;10.98;7.72;;;;;;;20.45;91.47;100419.81;2086719;28;20060;-66
2022/08/17 02:05:03;;;;;;;12.15;8.50;;;;;;;20.47;91.36;100420.28;2080092;28;20053;-65
2022/08/17 02:06:06;;;;;;;11.35;7.82;;;;;;;20.43;91.57;100424.03;2079806;28;20042;-65
2022/08/17 02:07:08;;;;;;;11.25;8.30;;;;;;;20.38;91.59;100423.16;2079823;28;20485;-65
2022/08/17 02:08:13;;;;;;;12.57;7.70;;;;;;;20.36;91.59;100422.72;2063626;28;20042;-67
2022/08/17 02:09:17;;;;;;;12.60;8.40;;;;;;;20.37;91.66;100421.56;2087303;28;20055;-65
2022/08/17 02:10:20;;;;;;;12.20;8.25;;;;;;;20.37;91.39;100416.09;2087448;28;20033;-65
2022/08/17 02:11:25;;;;;;;14.00;8.35;;;;;;;20.36;91.33;100421.91;2080166;28;20037;-65
2022/08/17 02:12:34;;;;;;;12.80;8.57;;;;;;;20.36;91.50;100419.16;2080512;28;20052;-66
2022/08/17 02:13:38;;;;;;;12.80;8.32;;;;;;;20.30;91.43;100420.56;2088358;28;20055;-67
2022/08/17 02:14:42;;;;;;;11.45;7.93;;;;;;;20.28;91.41;100422.88;2087290;28;20041;-66
2022/08/17 02:15:48;;;;;;;15.45;8.15;;;;;;;20.26;91.46;100419.69;2089023;28;20946;-66
2022/08/17 02:16:50;;;;;;;12.57;8.77;;;;;;;20.27;91.61;100416.63;2075971;28;20049;-66
2022/08/17 02:17:51;;;;;;;13.75;9.15;;;;;;;20.26;91.63;100416.94;2079486;28;20420;-66
2022/08/17 02:18:54;;;;;;;15.77;9.13;;;;;;;20.16;92.00;100418.22;2071675;28;20362;-66
2022/08/17 02:19:59;;;;;;;11.95;8.30;;;;;;;20.11;92.09;100416.56;2079528;28;20514;-65
2022/08/17 02:21:03;;;;;;;12.90;8.55;;;;;;;20.22;92.20;100413.31;2071558;28;20046;-65
2022/08/17 02:22:07;;;;;;;14.80;8.77;;;;;;;20.20;92.16;100410.13;2072294;28;20041;-66
2022/08/17 02:23:13;;;;;;;11.57;7.88;;;;;;;20.21;92.07;100414.44;2091880;28;20063;-66
2022/08/17 02:24:22;;;;;;;13.60;8.40;;;;;;;20.24;92.20;100419.22;2088147;28;20037;-66
2022/08/17 02:25:27;;;;;;;12.17;8.87;;;;;;;20.24;92.16;100416.50;2092784;28;20032;-66
2022/08/17 02:26:30;;;;;;;11.43;8.35;;;;;;;20.21;92.17;100423.47;2088756;28;20287;-67
2022/08/17 02:27:32;;;;;;;14.10;8.52;;;;;;;20.19;92.06;100412.06;2104694;28;20032;-66
2022/08/17 02:28:36;;;;;;;15.18;8.88;;;;;;;20.18;92.13;100415.97;2087879;28;20032;-65
2022/08/17 02:29:38;;;;;;;11.13;8.20;;;;;;;20.16;91.88;100414.72;2080670;28;20037;-66
2022/08/17 02:30:47;;;;;;;11.98;8.02;;;;;;;20.14;91.90;100418.59;2095915;28;20027;-66
2022/08/17 02:31:49;;;;;;;12.38;8.40;;;;;;;20.16;91.99;100415.50;2096368;28;20056;-65
2022/08/17 02:32:52;;;;;;;13.65;9.07;;;;;;;20.14;92.01;100417.78;2088010;28;20040;-64
2022/08/17 02:33:54;;;;;;;12.13;8.10;;;;;;;20.06;92.00;100411.31;2088256;28;20047;-65
2022/08/17 02:34:56;;;;;;;13.88;8.02;;;;;;;20.02;92.15;100410.44;2088047;28;20044;-65
2022/08/17 02:36:01;;;;;;;13.02;7.78;;;;;;;19.99;92.17;100413.84;2079960;28;20033;-66
2022/08/17 02:37:07;;;;;;;13.63;8.43;;;;;;;20.04;92.45;100412.81;2087953;28;20045;-66
2022/08/17 02:38:11;;;;;;;14.65;9.85;;;;;;;19.98;92.39;100409.53;2088334;28;20036;-66
2022/08/17 02:39:15;;;;;;;15.77;8.50;;;;;;;20.01;92.28;100411.56;2088681;28;20036;-66
2022/08/17 02:40:23;;;;;;;11.20;8.07;;;;;;;20.05;92.41;100414.38;2087857;28;20400;-67
2022/08/17 02:41:30;;;;;;;13.23;9.05;;;;;;;19.98;92.32;100403.28;2079676;28;20060;-67
2022/08/17 02:42:40;;;;;;;11.10;7.70;;;;;;;20.02;92.25;100415.91;2073705;28;20484;-65
2022/08/17 02:43:52;;;;;;;14.43;8.43;;;;;;;19.97;92.14;100413.41;2082698;28;20033;-66
2022/08/17 02:44:55;;;;;;;12.45;8.02;;;;;;;19.95;92.47;100415.66;2087542;28;20044;-65
2022/08/17 02:46:01;;;;;;;11.73;8.55;;;;;;;19.99;92.39;100411.13;2079679;28;20052;-66
2022/08/17 02:47:10;;;;;;;17.80;8.35;;;;;;;19.93;92.48;100409.00;2071384;28;20060;-66
2022/08/17 02:48:13;;;;;;;14.55;8.65;;;;;;;19.89;92.36;100412.41;2073679;28;20514;-66
2022/08/17 02:49:15;;;;;;;12.32;8.73;;;;;;;19.91;92.38;100412.03;2071613;28;20477;-66
2022/08/17 02:50:19;;;;;;;12.75;9.10;;;;;;;19.93;92.45;100417.19;2071585;28;20034;-67
2022/08/17 02:51:26;;;;;;;15.02;8.27;;;;;;;19.87;92.60;100411.16;2087614;28;20041;-66
2022/08/17 02:52:36;;;;;;;12.43;8.32;;;;;;;19.90;92.29;100414.00;2071441;28;20108;-64
2022/08/17 02:53:39;;;;;;;12.65;8.52;;;;;;;19.92;92.50;100421.81;2086368;28;20049;-66
2022/08/17 02:54:42;;;;;;;11.25;7.88;;;;;;;19.93;92.43;100417.97;2089753;28;20102;-65
2022/08/17 02:55:47;;;;;;;13.30;8.95;;;;;;;19.94;92.34;100419.53;2086800;28;20516;-65
2022/08/17 02:56:52;;;;;;;11.38;8.00;;;;;;;20.00;92.43;100418.16;2096251;28;20055;-65
2022/08/17 02:57:57;;;;;;;10.55;7.93;;;;;;;20.03;92.33;100412.03;2086976;28;21817;-66
2022/08/17 02:58:59;;;;;;;14.98;8.23;;;;;;;20.03;92.32;100414.75;2079327;28;20060;-66
2022/08/17 03:00:05;;;;;;;15.32;8.90;;;;;;;20.04;92.30;100416.31;2096098;28;20045;-67
2022/08/17 03:01:11;;;;;;;14.90;8.48;;;;;;;20.04;92.13;100416.31;2078753;28;20319;-65
2022/08/17 03:02:13;;;;;;;16.08;8.88;;;;;;;20.06;92.13;100416.78;2064400;28;20402;-67
2022/08/17 03:03:21;;;;;;;13.40;9.07;;;;;;;20.08;92.12;100416.44;2079337;28;20052;-66
2022/08/17 03:04:31;;;;;;;14.02;8.07;;;;;;;20.06;92.03;100416.78;2087822;28;20037;-65
2022/08/17 03:05:36;;;;;;;14.15;8.38;;;;;;;20.04;92.10;100416.31;2094174;28;20033;-66
2022/08/17 03:06:41;;;;;;;14.27;8.65;;;;;;;20.00;92.19;100418.16;2087793;28;20037;-66
2022/08/17 03:07:44;;;;;;;12.07;8.10;;;;;;;19.99;92.25;100416.59;2080020;28;20048;-65
2022/08/17 03:08:49;;;;;;;14.80;8.48;;;;;;;19.97;92.28;100416.13;2072078;28;20041;-65
2022/08/17 03:09:52;;;;;;;15.73;8.73;;;;;;;19.91;92.38;100414.78;2080076;28;20052;-66
2022/08/17 03:10:55;;;;;;;11.90;8.60;;;;;;;19.96;92.26;100417.28;2071359;28;20029;-67
2022/08/17 03:12:13;;;;;;;12.30;8.85;;;;;;;19.97;92.54;100421.59;2055682;28;20058;-66
2022/08/17 03:13:15;;;;;;;12.00;8.43;;;;;;;20.00;92.38;100412.72;2076145;28;20038;-67
2022/08/17 03:14:20;;;;;;;11.32;8.00;;;;;;;20.03;92.43;100417.47;2087251;28;20057;-66
2022/08/17 03:15:32;;;;;;;12.35;8.27;;;;;;;20.05;92.31;100419.84;2081719;28;20050;-67
2022/08/17 03:16:34;;;;;;;12.70;8.23;;;;;;;20.01;92.35;100421.69;2085804;28;20044;-66
2022/08/17 03:17:41;;;;;;;13.35;8.20;;;;;;;20.03;92.15;100417.47;2091934;28;20036;-67
2022/08/17 03:18:43;;;;;;;11.82;7.63;;;;;;;20.05;92.01;100419.84;2088280;28;20048;-67
2022/08/17 03:19:51;;;;;;;12.55;7.72;;;;;;;20.03;91.95;100420.22;2086902;28;20049;-66
2022/08/17 03:20:59;;;;;;;10.90;8.07;;;;;;;20.03;91.60;100422.16;2072760;28;20053;-66
2022/08/17 03:22:04;;;;;;;12.05;8.10;;;;;;;20.01;91.34;100419.75;2066945;28;20501;-67
2022/08/17 03:23:06;;;;;;;10.32;7.18;;;;;;;20.03;91.33;100422.94;2084611;28;20114;-66
2022/08/17 03:24:13;;;;;;;11.10;7.90;;;;;;;19.99;91.21;100427.50;2081671;28;20504;-66
2022/08/17 03:25:36;;;;;;;10.90;7.72;;;;;;;19.94;91.65;100425.00;2087236;28;20049;-66
2022/08/17 03:26:38;;;;;;;12.30;7.60;;;;;;;19.95;91.90;100428.53;2089627;28;20044;-66
2022/08/17 03:27:43;;;;;;;12.52;7.93;;;;;;;19.93;92.07;100431.59;2080716;28;20045;-66
2022/08/17 03:28:49;;;;;;;13.13;8.20;;;;;;;19.92;91.86;100427.28;2082248;28;20421;-66
2022/08/17 03:29:55;;;;;;;11.85;8.07;;;;;;;19.86;92.21;100429.47;2081141;28;20048;-66
2022/08/17 03:31:00;;;;;;;11.77;7.90;;;;;;;19.90;92.25;100429.56;2082089;28;20386;-65
2022/08/17 03:32:14;;;;;;;12.88;7.85;;;;;;;19.94;92.33;100430.47;2073375;28;20045;-66
2022/08/17 03:33:19;;;;;;;12.27;7.90;;;;;;;19.93;92.36;100428.88;2085453;28;20501;-66
2022/08/17 03:34:23;;;;;;;12.88;8.10;;;;;;;19.93;92.24;100423.44;2089282;28;20048;-67
2022/08/17 03:35:27;;;;;;;12.30;7.82;;;;;;;19.91;92.40;100428.41;2081622;28;20036;-66
2022/08/17 03:36:30;;;;;;;14.32;8.10;;;;;;;19.95;92.16;100437.50;2073376;28;20045;-66
2022/08/17 03:37:37;;;;;;;12.80;7.78;;;;;;;19.94;92.11;100435.91;2073297;28;20037;-67
2022/08/17 03:38:42;;;;;;;11.95;7.72;;;;;;;19.96;92.08;100439.09;2089076;28;20037;-67
2022/08/17 03:39:44;;;;;;;13.50;7.85;;;;;;;19.94;92.17;100435.91;2086337;28;20103;-66
2022/08/17 03:40:48;;;;;;;14.40;8.25;;;;;;;19.96;92.22;100435.59;2089401;28;20040;-66
2022/08/17 03:41:50;;;;;;;12.00;7.85;;;;;;;19.99;92.15;100438.41;2080696;28;20049;-66
2022/08/17 03:42:53;;;;;;;11.02;7.45;;;;;;;19.99;92.27;100438.41;2081317;28;20933;-66
2022/08/17 03:43:58;;;;;;;13.05;7.38;;;;;;;20.00;92.14;100434.53;2095046;28;20047;-66
2022/08/17 03:45:03;;;;;;;11.95;7.95;;;;;;;19.99;92.06;100432.97;2072930;28;20041;-66
2022/08/17 03:57:17;;;;;;;9.15;6.72;;;;;;;20.03;90.57;100436.59;2088876;28;20056;-66
2022/08/17 03:58:19;;;;;;;11.70;6.82;;;;;;;20.06;90.36;100438.63;2080942;28;20525;-67
2022/08/17 03:59:21;;;;;;;11.02;6.88;;;;;;;20.06;90.15;100430.44;2080790;28;20041;-67
2022/08/17 04:00:24;;;;;;;10.00;6.35;;;;;;;20.07;89.85;100437.47;2080902;28;20037;-67
2022/08/17 04:01:31;;;;;;;11.18;7.22;;;;;;;20.08;89.68;100443.72;2072482;28;20508;-66
2022/08/17 04:02:33;;;;;;;12.35;6.35;;;;;;;20.09;89.73;100429.75;2066527;28;20086;-65
2022/08/17 04:03:36;;;;;;;12.00;7.32;;;;;;;20.11;89.81;100443.84;2072596;28;20025;-65
2022/08/17 04:04:38;;;;;;;17.05;8.05;;;;;;;20.13;89.63;100440.75;2089216;28;20440;-66
2022/08/17 04:05:43;;;;;;;18.42;8.80;;;;;;;20.13;89.84;100438.03;2072352;28;20033;-66
2022/08/17 04:06:47;;;;;;;17.52;7.85;;;;;;;20.16;89.72;100442.00;2065763;28;20501;-66
2022/08/17 04:07:52;;;;;;;10.85;7.03;;;;;;;20.19;89.63;100433.13;2081510;28;20048;-65
2022/08/17 04:09:00;;;;;;;9.18;6.15;;;;;;;20.18;89.64;100439.75;2096892;28;20053;-65
2022/08/17 04:10:03;;;;;;;11.32;6.50;;;;;;;20.22;89.69;100440.63;2093147;28;20040;-67
2022/08/17 04:11:06;;;;;;;11.48;6.35;;;;;;;20.23;89.60;100436.75;2088815;28;20050;-65
2022/08/17 04:12:07;;;;;;;9.93;6.65;;;;;;;20.18;89.71;100437.00;2072547;28;20049;-65
2022/08/17 04:13:14;;;;;;;13.10;6.78;;;;;;;20.21;89.78;100441.75;2072993;28;20097;-66
2022/08/17 04:14:34;;;;;;;9.15;6.65;;;;;;;20.21;90.08;100444.47;2080853;28;20044;-66
2022/08/17 04:15:40;;;;;;;10.70;6.90;;;;;;;20.22;90.10;100441.41;2079037;28;20048;-65
2022/08/17 04:16:41;;;;;;;11.10;7.30;;;;;;;20.24;90.08;100438.31;2078070;28;20473;-65
2022/08/17 04:17:49;;;;;;;12.00;7.32;;;;;;;20.26;89.99;100438.78;2077111;28;20045;-65
2022/08/17 04:18:55;;;;;;;11.90;7.63;;;;;;;20.27;89.85;100445.81;2089594;28;20488;-66
2022/08/17 04:20:00;;;;;;;13.73;7.63;;;;;;;20.29;89.83;100435.38;2081735;28;20037;-66
2022/08/17 04:21:02;;;;;;;11.63;7.40;;;;;;;20.30;89.87;100443.22;2080775;28;20038;-65
2022/08/17 04:22:08;;;;;;;11.40;6.70;;;;;;;20.31;89.62;100438.56;2080446;28;20065;-65
2022/08/17 04:23:15;;;;;;;11.10;7.78;;;;;;;20.32;89.54;100435.47;2085633;28;20040;-66
2022/08/17 04:24:19;;;;;;;9.02;6.60;;;;;;;20.35;89.39;100451.16;2087907;28;20563;-65
2022/08/17 04:25:23;;;;;;;10.52;7.28;;;;;;;20.35;89.63;100442.97;2079043;28;20037;-65
2022/08/17 04:26:29;;;;;;;11.65;6.95;;;;;;;20.31;89.64;100450.25;2088334;28;20056;-65
2022/08/17 04:27:31;;;;;;;13.43;7.63;;;;;;;20.31;89.62;100449.47;2080782;28;20033;-65
2022/08/17 04:28:35;;;;;;;16.83;7.70;;;;;;;20.30;89.59;100447.88;2080695;28;20029;-66
2022/08/17 04:29:43;;;;;;;12.02;7.93;;;;;;;20.41;89.37;100451.69;2088319;28;20055;-65
2022/08/17 04:30:47;;;;;;;11.52;7.78;;;;;;;20.62;88.70;100450.72;2081386;28;20037;-66
2022/08/17 04:31:53;;;;;;;11.40;7.47;;;;;;;20.80;87.85;100455.53;2097636;28;20519;-67
2022/08/17 04:33:10;;;;;;;11.43;7.57;;;;;;;20.88;87.24;100453.78;2087962;28;20051;-67
2022/08/17 04:34:15;;;;;;;10.45;6.78;;;;;;;21.06;86.96;100459.72;2076617;28;20026;-66
2022/08/17 04:35:19;;;;;;;16.05;7.90;;;;;;;21.09;86.70;100455.47;2079928;28;20088;-66
2022/08/17 04:36:25;;;;;;;12.93;7.63;;;;;;;21.18;86.71;100458.81;2080222;28;20044;-66
2022/08/17 04:37:31;;;;;;;11.00;7.35;;;;;;;21.30;86.88;100456.00;2087551;28;20037;-65
2022/08/17 04:38:38;;;;;;;11.25;7.28;;;;;;;21.34;86.70;100456.09;2087256;28;20037;-65
2022/08/17 04:42:05;;;;;;;11.15;7.45;;;;;;;21.38;86.66;100457.81;2080366;28;20045;-66
2022/08/17 04:42:29;;;;;;;12.38;7.55;;;;;;;21.55;86.05;100455.84;2088250;28;20088;-64
2022/08/17 04:43:33;;;;;;;12.63;7.85;;;;;;;21.53;85.63;100450.72;2087718;28;20045;-64
2022/08/17 04:44:46;;;;;;;14.93;7.85;;;;;;;21.45;85.65;100457.19;2080139;28;20044;-65
2022/08/17 04:46:01;;;;;;;10.90;7.63;;;;;;;21.34;85.71;100461.56;2072400;28;20476;-64
2022/08/17 04:47:06;;;;;;;14.98;7.63;;;;;;;21.35;86.10;100460.44;2082249;28;20041;-64
2022/08/17 04:48:08;;;;;;;12.50;8.20;;;;;;;21.32;86.15;100459.19;2087643;28;20041;-64
2022/08/17 04:49:12;;;;;;;14.25;7.57;;;;;;;21.31;86.59;100460.31;2079174;28;20052;-65
2022/08/17 04:50:15;;;;;;;17.65;7.85;;;;;;;21.28;86.76;100459.09;2087708;28;20642;-63
2022/08/17 04:51:56;;;;;;;13.13;7.30;;;;;;;21.28;86.84;100455.59;2095609;28;20043;-66
2022/08/17 04:52:59;;;;;;;13.88;7.18;;;;;;;21.24;86.63;100462.88;2069771;28;20053;-64
2022/08/17 04:54:14;;;;;;;9.55;5.93;;;;;;;21.26;85.90;100460.59;2080400;28;20053;-66
2022/08/17 04:55:15;;;;;;;11.45;5.90;;;;;;;21.35;85.47;100461.25;2089202;28;20041;-66
2022/08/17 04:56:19;;;;;;;12.13;5.88;;;;;;;;;;2087523;28;20045;-64
2022/08/17 04:57:22;;;;;;;7.75;5.53;;;;;;;21.49;84.50;100460.78;2087600;28;20068;-66
2022/08/17 04:58:26;;;;;;;7.72;5.65;;;;;;;21.45;84.31;100468.91;2095803;28;20771;-67
2022/08/17 04:59:31;;;;;;;9.30;5.70;;;;;;;21.43;84.09;100465.72;2078659;28;20172;-66
2022/08/17 05:00:34;;;;;;;8.07;5.57;;;;;;;21.42;84.19;100463.34;2079945;28;20485;-66
2022/08/17 05:01:44;;;;;;;7.53;5.90;;;;;;;21.39;84.33;100467.59;2087337;28;20044;-64
2022/08/17 05:02:49;;;;;;;9.02;5.53;;;;;;;21.45;84.39;100474.38;2081144;28;20025;-65
2022/08/17 05:03:52;;;;;;;9.50;5.68;;;;;;;;;;2087959;28;20040;-64
2022/08/17 05:04:56;;;;;;;9.00;5.43;;;;;;;21.55;83.99;100477.72;2087879;28;20562;-65
2022/08/17 05:06:07;;;;;;;9.32;5.55;;;;;;;21.58;83.67;100474.28;2085087;28;20033;-65
2022/08/17 05:07:15;;;;;;;9.35;6.00;;;;;;;21.68;83.20;100476.47;2088232;28;20037;-65
2022/08/17 05:08:18;;;;;;;9.38;5.50;;;;;;;21.80;83.18;100473.63;2080218;28;20033;-65
2022/08/17 05:09:22;;;;;;;8.15;5.35;;;;;;;21.86;82.72;100474.94;2080340;28;20115;-65
2022/08/17 05:10:29;;;;;;;9.02;5.70;;;;;;;21.79;82.56;100477.53;2087948;28;20052;-64
2022/08/17 05:11:32;;;;;;;8.13;5.45;;;;;;;21.80;82.86;100470.88;2088453;28;20033;-64
2022/08/17 05:12:34;;;;;;;9.43;5.97;;;;;;;21.83;82.76;100474.88;2080244;28;20037;-65
2022/08/17 05:13:38;;;;;;;7.25;5.60;;;;;;;21.85;83.07;100478.06;2072211;28;20490;-65
2022/08/17 05:14:41;;;;;;;9.18;5.90;;;;;;;21.87;83.21;100473.78;2080079;28;20049;-65
2022/08/17 05:15:49;;;;;;;9.65;5.35;;;;;;;21.87;83.26;100479.25;2079096;28;20045;-65
2022/08/17 05:16:54;;;;;;;9.05;5.57;;;;;;;21.80;82.72;100484.56;2075694;28;20401;-65
2022/08/17 05:17:59;;;;;;;10.35;5.95;;;;;;;21.80;82.41;100484.56;2078929;28;20045;-65